Ana Sayfa
METAR-TAF:

METAR-TAF

Havaalanları :

Cape Romanzof, Alaska, Amerika Birleşik Devletleri

Enlem: 61-47N, Boylam: 166-02W, yükseklik: 139 m

Güncel hava durumu gözlemi

Rapor saat 06:55 UTC de 54 dakika önce yapıldı.
Rüzgar kuzeydan 17 kt, kuzeybatı ve kuzey/kuzeydoğu arasında değişken
Sıcaklık 8°C
Nem 93%
Basınç 1024 hPa
Görüş mesafesi: 16.1 km
Açık gökyüzü

METAR: PACZ 150655Z AUTO 01017KT 320V030 10SM CLR 08/07 A3024 RMK AO2 SLP247 T00810065

Saat: 23:49 (07:49 UTC)


TAF: eksik

4.000'den fazla havaalanı için hava durumu gözlemleri ve tahminleri (METAR ve TAF raporları).

Kullanılabilir istasyonlar harita üzerinde sarı ve kırmızı noktalarla gösterilir.

İstasyonun adını görmek için fareyi noktanın üzerinde gezdirin.

Sonrasında hava gözlem ve tahminlerini görmek için tıklayın.

Haritayı değiştirmek için: yaklaştırmak için siyah artı işaretli yeşil düğmeye ve uzaklaştırmak için de eksi işaretli düğmeye hızla tıklayın; bitişik haritalar için yeşil okları kullanın.


METAR-TAF: